Time;durP1;ratioP1;P1;durP2;ratioP2;P2;SDS_P1;SDS_P2;PMS_P1;PMS_P2;Temp;Humidity;BMP_temperature;BMP_pressure;BME280_temperature;BME280_humidity;BME280_pressure;Samples;Min_cycle;Max_cycle;Signal;HPM_P1;HPM_P2
2021/12/07 00:01:21;;;;;;;;;;;1.40;99.90;;;;;;5078048;28;19920;-80
2021/12/07 00:03:47;;;;;;;;;;;0.70;99.90;;;;;;5060863;28;19974;-79
2021/12/07 00:06:13;;;;;;;;;;;0.70;99.90;;;;;;5059352;28;19935;-79
2021/12/07 00:08:42;;;;;;;;;;;0.70;99.90;;;;;;5042775;28;20366;-80
2021/12/07 00:11:08;;;;;;;;;;;0.70;99.90;;;;;;5058442;28;19941;-79
2021/12/07 00:13:36;;;;;;;;;;;0.80;99.90;;;;;;5075749;28;19920;-79
2021/12/07 00:16:03;;;;;;;;;;;0.80;99.90;;;;;;5075135;28;19928;-79
2021/12/07 00:18:29;;;;;;;;;;;0.80;99.90;;;;;;5056858;28;19927;-79
2021/12/07 00:20:54;;;;;;;;;;;0.80;99.90;;;;;;5075138;28;19987;-79
2021/12/07 00:23:20;;;;;;;;;;;0.80;99.90;;;;;;5057191;28;19927;-79
2021/12/07 00:25:46;;;;;;;;;;;0.80;99.90;;;;;;5075342;28;19927;-79
2021/12/07 00:28:12;;;;;;;;;;;0.80;99.90;;;;;;5076040;28;19920;-79
2021/12/07 00:30:37;;;;;;;;;;;0.90;99.90;;;;;;5041938;28;19974;-80
2021/12/07 00:33:12;;;;;;;;;;;0.80;99.90;;;;;;5059250;28;19920;-80
2021/12/07 00:35:38;;;;;;;;;;;0.80;99.90;;;;;;5076566;28;19927;-79
2021/12/07 00:38:15;;;;;;;;;;;0.80;99.90;;;;;;5058668;28;19920;-80
2021/12/07 00:40:42;;;;;;;;;;;0.70;99.90;;;;;;5059585;28;19920;-80
2021/12/07 00:43:08;;;;;;;;;;;0.70;99.90;;;;;;5059435;28;20275;-80
2021/12/07 00:45:35;;;;;;;;;;;1.70;99.90;;;;;;5043100;28;19970;-80
2021/12/07 00:48:01;;;;;;;;;;;0.60;99.90;;;;;;5059484;28;19920;-80
2021/12/07 00:50:28;;;;;;;;;;;1.30;99.90;;;;;;5077835;28;19927;-80
2021/12/07 00:52:54;;;;;;;;;;;0.60;99.90;;;;;;5078581;28;19920;-80
2021/12/07 00:55:21;;;;;;;;;;;0.60;99.90;;;;;;5042902;28;19920;-80
2021/12/07 00:57:51;;;;;;;;;;;0.60;99.90;;;;;;5042259;28;20065;-80
2021/12/07 01:00:17;;;;;;;;;;;0.70;99.90;;;;;;5041349;28;19928;-80
2021/12/07 01:02:43;;;;;;;;;;;0.60;99.90;;;;;;5059344;28;19921;-79
2021/12/07 01:05:16;;;;;;;;;;;0.70;99.90;;;;;;5079303;28;20495;-79
2021/12/07 01:26:32;;;;;;;;;;;0.70;99.90;;;;;;5078048;28;19924;-79
2021/12/07 01:28:57;;;;;;;;;;;0.70;99.90;;;;;;5078089;28;20281;-80
2021/12/07 01:31:44;;;;;;;;;;;0.80;99.90;;;;;;5078112;28;20370;-79
2021/12/07 01:37:12;;;;;;;;;;;0.70;99.90;;;;;;5078126;28;19966;-79
2021/12/07 01:57:56;;;;;;;;;;;0.80;99.90;;;;;;5062228;28;19920;-80
2021/12/07 02:00:24;;;;;;;;;;;0.80;99.90;;;;;;5079247;28;19920;-80
2021/12/07 02:02:49;;;;;;;;;;;0.80;99.90;;;;;;5045303;28;19920;-80
2021/12/07 02:05:15;;;;;;;;;;;0.80;99.90;;;;;;5075450;22;19993;-81
2021/12/07 02:07:41;;;;;;;;;;;0.80;99.90;;;;;;5041771;28;19927;-80
2021/12/07 02:10:13;;;;;;;;;;;0.80;99.90;;;;;;5042209;28;19916;-80
2021/12/07 02:12:44;;;;;;;;;;;0.80;99.90;;;;;;5041580;28;19921;-80
2021/12/07 02:15:12;;;;;;;;;;;0.70;99.90;;;;;;5025230;28;20278;-80
2021/12/07 02:17:37;;;;;;;;;;;0.70;99.90;;;;;;5024906;28;20367;-81
2021/12/07 02:20:03;;;;;;;;;;;1.10;99.90;;;;;;5041477;28;20098;-80
2021/12/07 02:22:29;;;;;;;;;;;0.70;99.90;;;;;;5041449;28;19917;-80
2021/12/07 02:24:55;;;;;;;;;;;0.80;99.90;;;;;;5025532;28;19975;-80
2021/12/07 02:27:20;;;;;;;;;;;1.50;99.90;;;;;;5025592;28;20374;-79
2021/12/07 02:29:46;;;;;;;;;;;0.80;99.90;;;;;;5059155;28;19936;-80
2021/12/07 02:32:12;;;;;;;;;;;0.80;99.90;;;;;;5024703;28;19927;-80
2021/12/07 02:34:42;;;;;;;;;;;0.80;99.90;;;;;;5041165;28;19943;-80
2021/12/07 02:37:08;;;;;;;;;;;0.80;99.90;;;;;;5024910;28;20298;-80
2021/12/07 02:39:35;;;;;;;;;;;1.40;99.90;;;;;;5059988;28;19927;-80
2021/12/07 02:42:01;;;;;;;;;;;1.80;99.90;;;;;;5024572;28;19943;-80
2021/12/07 02:44:27;;;;;;;;;;;1.00;99.90;;;;;;5040107;28;19921;-80
2021/12/07 02:46:52;;;;;;;;;;;1.10;99.90;;;;;;5041188;28;19978;-80
2021/12/07 02:49:19;;;;;;;;;;;1.10;99.90;;;;;;5039409;28;19967;-81
2021/12/07 02:51:45;;;;;;;;;;;1.10;99.90;;;;;;5040154;28;19927;-80
2021/12/07 02:54:10;;;;;;;;;;;1.10;99.90;;;;;;5058331;28;19921;-80
2021/12/07 02:56:36;;;;;;;;;;;1.80;99.90;;;;;;5024590;28;19978;-80
2021/12/07 02:59:04;;;;;;;;;;;1.10;99.90;;;;;;5024439;28;19927;-80
2021/12/07 03:01:33;;;;;;;;;;;1.10;99.90;;;;;;5024088;28;19920;-80
2021/12/07 03:06:43;;;;;;;;;;;1.10;99.90;;;;;;5058906;28;19990;-80
2021/12/07 03:28:10;;;;;;;;;;;1.20;99.90;;;;;;5058367;28;19920;-80
2021/12/07 03:30:36;;;;;;;;;;;1.30;99.90;;;;;;5040165;28;20294;-80
2021/12/07 03:33:03;;;;;;;;;;;1.30;99.90;;;;;;5023324;28;19921;-80
2021/12/07 03:35:28;;;;;;;;;;;2.00;99.90;;;;;;5023411;28;19970;-80
2021/12/07 03:37:54;;;;;;;;;;;1.30;99.90;;;;;;5039788;28;19920;-80
2021/12/07 03:40:20;;;;;;;;;;;1.30;99.90;;;;;;5040292;28;19921;-80
2021/12/07 03:42:45;;;;;;;;;;;1.30;99.90;;;;;;5039457;28;19921;-80
2021/12/07 03:45:11;;;;;;;;;;;1.30;99.90;;;;;;5040192;28;19920;-80
2021/12/07 03:47:37;;;;;;;;;;;1.40;99.90;;;;;;5058015;28;19917;-80
2021/12/07 03:50:03;;;;;;;;;;;1.30;99.90;;;;;;5039107;28;20371;-80
2021/12/07 03:52:28;;;;;;;;;;;1.40;99.90;;;;;;5057878;28;20279;-80
2021/12/07 03:54:54;;;;;;;;;;;1.80;99.90;;;;;;5040226;28;19921;-80
2021/12/07 03:57:19;;;;;;;;;;;1.40;99.90;;;;;;5058543;28;19920;-80
2021/12/07 03:59:45;;;;;;;;;;;1.40;99.90;;;;;;5024359;28;19931;-79
2021/12/07 04:02:10;;;;;;;;;;;1.40;99.90;;;;;;5058842;28;19921;-80
2021/12/07 04:04:37;;;;;;;;;;;1.40;99.90;;;;;;5040273;28;19966;-80
2021/12/07 04:07:04;;;;;;;;;;;1.30;99.90;;;;;;5040458;28;20345;-80
2021/12/07 04:09:31;;;;;;;;;;;1.30;99.90;;;;;;5058201;28;19921;-80
2021/12/07 04:11:56;;;;;;;;;;;1.30;99.90;;;;;;5058331;28;20271;-80
2021/12/07 04:14:22;;;;;;;;;;;1.20;99.90;;;;;;5039413;28;19927;-80
2021/12/07 04:16:47;;;;;;;;;;;1.20;99.90;;;;;;5057533;28;19920;-80
2021/12/07 04:19:13;;;;;;;;;;;1.20;99.90;;;;;;5057665;28;19920;-80
2021/12/07 04:21:38;;;;;;;;;;;1.20;99.90;;;;;;5057503;28;20046;-80
2021/12/07 04:24:04;;;;;;;;;;;1.30;99.90;;;;;;5057776;28;19982;-80
2021/12/07 04:26:31;;;;;;;;;;;1.40;99.90;;;;;;5039840;28;19975;-80
2021/12/07 04:28:57;;;;;;;;;;;1.30;99.90;;;;;;5038907;28;19976;-80
2021/12/07 04:31:22;;;;;;;;;;;1.30;99.90;;;;;;5023033;28;19928;-80
2021/12/07 04:33:48;;;;;;;;;;;1.30;99.90;;;;;;5056892;28;19925;-80
2021/12/07 04:36:14;;;;;;;;;;;1.20;99.90;;;;;;5057862;28;20371;-80
2021/12/07 04:38:40;;;;;;;;;;;1.30;99.90;;;;;;5042387;28;19977;-80
2021/12/07 04:41:06;;;;;;;;;;;2.20;99.90;;;;;;5061881;28;20358;-80
2021/12/07 04:43:33;;;;;;;;;;;1.30;99.90;;;;;;5026505;28;19921;-80
2021/12/07 04:59:05;;;;;;;;;;;1.10;99.90;;;;;;5060425;28;20370;-80
2021/12/07 05:01:32;;;;;;;;;;;1.00;99.90;;;;;;5025501;28;19974;-80
2021/12/07 05:04:00;;;;;;;;;;;1.00;99.90;;;;;;5060654;28;19921;-80
2021/12/07 05:06:30;;;;;;;;;;;1.00;99.90;;;;;;5060393;28;19932;-80
2021/12/07 05:09:01;;;;;;;;;;;0.90;99.90;;;;;;5060498;28;20531;-80
2021/12/07 05:11:44;;;;;;;;;;;0.80;99.90;;;;;;5041970;28;20363;-80
2021/12/07 05:17:43;;;;;;;;;;;0.70;99.90;;;;;;5042178;28;20287;-80
2021/12/07 05:38:29;;;;;;;;;;;0.80;99.90;;;;;;4955199;29;19922;-80
2021/12/07 05:40:54;;;;;;;;;;;0.90;99.90;;;;;;4955331;29;19942;-80
2021/12/07 05:43:20;;;;;;;;;;;0.80;99.90;;;;;;4942777;29;19930;-80
2021/12/07 05:45:46;;;;;;;;;;;0.70;99.90;;;;;;4942015;29;19923;-80
2021/12/07 05:48:11;;;;;;;;;;;0.70;99.90;;;;;;4926599;29;19923;-80
2021/12/07 05:50:38;;;;;;;;;;;0.80;99.90;;;;;;4941798;29;19970;-80
2021/12/07 05:53:04;;;;;;;;;;;0.70;99.90;;;;;;4926663;29;19990;-80
2021/12/07 05:55:30;;;;;;;;;;;0.70;99.90;;;;;;4911452;29;19923;-80
2021/12/07 05:57:56;;;;;;;;;;;0.60;99.90;;;;;;4925928;29;19958;-80
2021/12/07 06:00:27;;;;;;;;;;;0.60;99.90;;;;;;4942329;29;19934;-80
2021/12/07 06:02:54;;;;;;;;;;;0.60;99.90;;;;;;4909520;29;20014;-80
2021/12/07 06:05:20;;;;;;;;;;;0.60;99.90;;;;;;4925016;29;19963;-80
2021/12/07 06:07:46;;;;;;;;;;;0.50;99.90;;;;;;5028098;28;19931;-80
2021/12/07 06:10:12;;;;;;;;;;;0.50;99.90;;;;;;5026201;28;19916;-80
2021/12/07 06:12:37;;;;;;;;;;;1.10;99.90;;;;;;5043366;28;19921;-80
2021/12/07 06:15:04;;;;;;;;;;;0.60;99.90;;;;;;5042720;28;19956;-80
2021/12/07 06:17:30;;;;;;;;;;;0.60;99.90;;;;;;5043739;28;19947;-80
2021/12/07 06:19:56;;;;;;;;;;;0.60;99.90;;;;;;5060385;28;19924;-80
2021/12/07 06:22:21;;;;;;;;;;;0.60;99.90;;;;;;5026171;28;19956;-80
2021/12/07 06:24:47;;;;;;;;;;;1.70;99.90;;;;;;5060702;28;19989;-80
2021/12/07 06:27:12;;;;;;;;;;;0.60;99.90;;;;;;5060446;28;19921;-80
2021/12/07 06:29:38;;;;;;;;;;;0.60;99.90;;;;;;5060015;28;19927;-80
2021/12/07 06:32:04;;;;;;;;;;;0.60;99.90;;;;;;5060291;28;20027;-79
2021/12/07 06:34:31;;;;;;;;;;;0.60;99.90;;;;;;5060796;28;19927;-80
2021/12/07 06:36:57;;;;;;;;;;;0.60;99.90;;;;;;5042020;28;19921;-80
2021/12/07 06:39:22;;;;;;;;;;;1.50;99.90;;;;;;5060040;28;19920;-80
2021/12/07 06:41:48;;;;;;;;;;;0.60;99.90;;;;;;5041942;28;20043;-80
2021/12/07 06:44:14;;;;;;;;;;;0.60;99.90;;;;;;5060346;28;19921;-80
2021/12/07 06:46:39;;;;;;;;;;;0.60;99.90;;;;;;5060166;28;20382;-80
2021/12/07 06:49:05;;;;;;;;;;;0.50;99.90;;;;;;5059691;28;19928;-80
2021/12/07 06:51:30;;;;;;;;;;;1.50;99.90;;;;;;5024828;28;19927;-80
2021/12/07 06:53:56;;;;;;;;;;;0.60;99.90;;;;;;5041420;28;19924;-80
2021/12/07 06:56:22;;;;;;;;;;;0.60;99.90;;;;;;5025460;28;20366;-80
2021/12/07 06:58:47;;;;;;;;;;;0.60;99.90;;;;;;5059596;28;19974;-80
2021/12/07 07:01:13;;;;;;;;;;;0.60;99.90;;;;;;5041217;28;19927;-80
2021/12/07 07:03:39;;;;;;;;;;;0.90;99.90;;;;;;5024547;28;19924;-80
2021/12/07 07:06:05;;;;;;;;;;;0.60;99.90;;;;;;5021150;28;19928;-80
2021/12/07 07:08:32;;;;;;;;;;;0.60;99.90;;;;;;5039203;28;20346;-80
2021/12/07 07:10:57;;;;;;;;;;;0.60;99.90;;;;;;5039530;28;19921;-80
2021/12/07 07:13:23;;;;;;;;;;;0.70;99.90;;;;;;5038184;28;19921;-80
2021/12/07 07:15:49;;;;;;;;;;;0.70;99.90;;;;;;5037933;28;19928;-80
2021/12/07 07:18:14;;;;;;;;;;;0.70;99.90;;;;;;5021721;28;19975;-80
2021/12/07 07:20:40;;;;;;;;;;;0.70;99.90;;;;;;5038100;28;19921;-80
2021/12/07 07:23:06;;;;;;;;;;;0.70;99.90;;;;;;5004886;28;19925;-80
2021/12/07 07:25:32;;;;;;;;;;;0.70;99.90;;;;;;5021352;28;19924;-80
2021/12/07 07:27:58;;;;;;;;;;;0.60;99.90;;;;;;5038937;28;19928;-80
2021/12/07 07:30:24;;;;;;;;;;;0.60;99.90;;;;;;5037164;28;19960;-80
2021/12/07 07:32:50;;;;;;;;;;;1.00;99.90;;;;;;5038996;28;20385;-80
2021/12/07 07:35:16;;;;;;;;;;;0.60;99.90;;;;;;5021223;28;19932;-80
2021/12/07 07:37:42;;;;;;;;;;;0.60;99.90;;;;;;5037711;28;19921;-80
2021/12/07 07:40:09;;;;;;;;;;;0.60;99.90;;;;;;5037513;28;19927;-80
2021/12/07 07:42:35;;;;;;;;;;;0.60;99.90;;;;;;5037947;28;19921;-80
2021/12/07 07:45:00;;;;;;;;;;;0.60;99.90;;;;;;5039178;28;20338;-80
2021/12/07 07:47:26;;;;;;;;;;;0.60;99.90;;;;;;5037354;28;19925;-80
2021/12/07 07:49:51;;;;;;;;;;;0.50;99.90;;;;;;5038074;28;19925;-80
2021/12/07 07:52:17;;;;;;;;;;;0.50;99.90;;;;;;5036984;28;19921;-80
2021/12/07 07:54:43;;;;;;;;;;;0.50;99.90;;;;;;5038121;28;19956;-80
2021/12/07 07:57:08;;;;;;;;;;;0.50;99.90;;;;;;5038728;28;20000;-80
2021/12/07 07:59:36;;;;;;;;;;;0.50;99.90;;;;;;5037213;28;19921;-80
2021/12/07 08:02:02;;;;;;;;;;;0.40;99.90;;;;;;5037879;28;19928;-80
2021/12/07 08:04:28;;;;;;;;;;;1.00;99.90;;;;;;5021939;28;19921;-80
2021/12/07 08:06:53;;;;;;;;;;;0.40;99.90;;;;;;5040687;28;19986;-80
2021/12/07 08:09:19;;;;;;;;;;;0.40;99.90;;;;;;5041434;28;19921;-80
2021/12/07 08:11:44;;;;;;;;;;;0.40;99.90;;;;;;5058648;28;20373;-80
2021/12/07 08:14:10;;;;;;;;;;;0.40;99.90;;;;;;5027649;28;20007;-80
2021/12/07 08:16:36;;;;;;;;;;;0.40;99.90;;;;;;5044932;28;19924;-80
2021/12/07 08:19:02;;;;;;;;;;;0.40;99.90;;;;;;5027230;28;19967;-80
2021/12/07 08:21:27;;;;;;;;;;;0.40;99.90;;;;;;5062764;28;19924;-80
2021/12/07 08:23:53;;;;;;;;;;;0.40;99.90;;;;;;5062122;28;19927;-80
2021/12/07 08:26:20;;;;;;;;;;;0.00;99.90;;;;;;5028223;28;19927;-80
2021/12/07 08:28:46;;;;;;;;;;;0.40;99.90;;;;;;5044054;28;19947;-80
2021/12/07 08:31:11;;;;;;;;;;;0.50;99.90;;;;;;5061879;28;19920;-80
2021/12/07 08:33:37;;;;;;;;;;;0.50;99.90;;;;;;5061954;28;20066;-80
2021/12/07 08:36:03;;;;;;;;;;;0.50;99.90;;;;;;5062031;28;19925;-80
2021/12/07 08:38:29;;;;;;;;;;;0.50;99.90;;;;;;5045014;28;19921;-80
2021/12/07 08:40:55;;;;;;;;;;;0.50;99.90;;;;;;5044605;28;20003;-80
2021/12/07 08:43:22;;;;;;;;;;;0.50;99.90;;;;;;5027192;28;20350;-80
2021/12/07 08:45:47;;;;;;;;;;;0.60;99.90;;;;;;5044367;28;19924;-80
2021/12/07 08:48:13;;;;;;;;;;;1.50;99.90;;;;;;5043690;28;19928;-80
2021/12/07 08:50:39;;;;;;;;;;;0.70;99.90;;;;;;5027251;28;19928;-80
2021/12/07 08:53:07;;;;;;;;;;;1.80;99.90;;;;;;5043924;28;19969;-80
2021/12/07 09:01:04;;;;;;;;;;;0.90;99.90;;;;;;5039987;28;19920;-81
2021/12/07 09:03:30;;;;;;;;;;;1.00;99.90;;;;;;5026352;28;20393;-80
2021/12/07 09:05:55;;;;;;;;;;;1.10;99.90;;;;;;5041820;28;19925;-80
2021/12/07 09:08:21;;;;;;;;;;;1.20;99.90;;;;;;5042488;28;20459;-80
2021/12/07 09:10:47;;;;;;;;;;;1.20;99.90;;;;;;5042865;28;19921;-81
2021/12/07 09:13:12;;;;;;;;;;;1.40;99.90;;;;;;5042280;28;19971;-80
2021/12/07 09:15:38;;;;;;;;;;;1.40;99.90;;;;;;5061026;28;19921;-80
2021/12/07 09:18:04;;;;;;;;;;;1.40;99.90;;;;;;5026660;28;19921;-80
2021/12/07 09:20:30;;;;;;;;;;;2.30;99.90;;;;;;5043277;28;19920;-80
2021/12/07 09:22:55;;;;;;;;;;;1.60;99.90;;;;;;5026072;28;19925;-80
2021/12/07 09:25:21;;;;;;;;;;;1.60;99.90;;;;;;5026489;28;19991;-80
2021/12/07 09:27:46;;;;;;;;;;;2.20;99.90;;;;;;5060283;28;19921;-80
2021/12/07 09:30:13;;;;;;;;;;;1.70;99.90;;;;;;5060738;28;20256;-80
2021/12/07 09:32:39;;;;;;;;;;;1.80;99.90;;;;;;5042844;28;19984;-81
2021/12/07 09:35:06;;;;;;;;;;;1.90;99.90;;;;;;5026575;28;19921;-80
2021/12/07 09:37:32;;;;;;;;;;;2.00;99.90;;;;;;5043120;28;19920;-80
2021/12/07 09:39:57;;;;;;;;;;;2.00;99.90;;;;;;5043335;28;20331;-80
2021/12/07 09:42:23;;;;;;;;;;;2.10;99.90;;;;;;5060554;28;20382;-80
2021/12/07 09:44:49;;;;;;;;;;;2.10;99.90;;;;;;5042578;28;19920;-80
2021/12/07 09:47:14;;;;;;;;;;;2.50;99.90;;;;;;5041414;28;19970;-80
2021/12/07 09:49:40;;;;;;;;;;;2.40;99.90;;;;;;5041939;28;19921;-80
2021/12/07 09:52:05;;;;;;;;;;;2.60;99.90;;;;;;5060137;28;20010;-80
2021/12/07 09:54:31;;;;;;;;;;;2.90;99.90;;;;;;5041489;28;20003;-80
2021/12/07 09:56:57;;;;;;;;;;;3.20;99.90;;;;;;5059353;28;20272;-80
2021/12/07 09:59:22;;;;;;;;;;;3.40;99.90;;;;;;5060196;28;19928;-80
2021/12/07 10:01:49;;;;;;;;;;;3.50;99.90;;;;;;5059609;28;19924;-80
2021/12/07 10:04:14;;;;;;;;;;;3.60;99.90;;;;;;5041405;28;19928;-80
2021/12/07 10:06:40;;;;;;;;;;;3.70;99.90;;;;;;5041367;28;20274;-79
2021/12/07 10:09:06;;;;;;;;;;;3.70;99.90;;;;;;5059146;28;19924;-80
2021/12/07 10:11:32;;;;;;;;;;;3.90;99.90;;;;;;5058332;28;19921;-80
2021/12/07 10:13:58;;;;;;;;;;;3.70;99.90;;;;;;5058123;28;19928;-80
2021/12/07 10:16:24;;;;;;;;;;;4.40;99.90;;;;;;5058907;28;19943;-80
2021/12/07 10:18:50;;;;;;;;;;;3.60;99.90;;;;;;5058828;28;20394;-79
2021/12/07 10:21:16;;;;;;;;;;;3.60;99.90;;;;;;5041374;28;20295;-80
2021/12/07 10:23:45;;;;;;;;;;;3.60;99.90;;;;;;5041236;28;19928;-80
2021/12/07 10:26:12;;;;;;;;;;;3.80;99.90;;;;;;5058939;28;19921;-80
2021/12/07 10:28:46;;;;;;;;;;;4.00;99.90;;;;;;5030315;23;19965;-80
2021/12/07 10:31:18;;;;;;;;;;;3.70;99.90;;;;;;5041176;28;19920;-80
2021/12/07 10:33:44;;;;;;;;;;;3.70;99.90;;;;;;5058596;28;20264;-79
2021/12/07 10:36:11;;;;;;;;;;;4.50;99.90;;;;;;5039803;28;19962;-80
2021/12/07 10:38:37;;;;;;;;;;;3.80;99.90;;;;;;5040140;28;20652;-80
2021/12/07 10:41:05;;;;;;;;;;;3.90;99.90;;;;;;5057764;28;20409;-80
2021/12/07 10:43:40;;;;;;;;;;;3.90;99.90;;;;;;5023370;28;19932;-80
2021/12/07 10:46:24;;;;;;;;;;;4.00;99.90;;;;;;5058353;28;19932;-80
2021/12/07 10:48:50;;;;;;;;;;;4.00;99.90;;;;;;5058841;28;19942;-80
2021/12/07 10:51:15;;;;;;;;;;;4.70;99.90;;;;;;5022786;28;20302;-80
2021/12/07 10:53:51;;;;;;;;;;;4.00;99.90;;;;;;5057694;28;19943;-80
2021/12/07 10:56:33;;;;;;;;;;;4.40;99.90;;;;;;5046999;22;19920;-80
2021/12/07 10:58:59;;;;;;;;;;;3.90;99.90;;;;;;5017809;28;19959;-79
2021/12/07 11:01:41;;;;;;;;;;;3.90;99.90;;;;;;5017764;28;19925;-80
2021/12/07 11:04:22;;;;;;;;;;;4.00;99.90;;;;;;4983452;28;20387;-80
2021/12/07 11:07:07;;;;;;;;;;;4.00;99.90;;;;;;5017703;28;20403;-80
2021/12/07 11:09:40;;;;;;;;;;;4.00;99.90;;;;;;5018411;28;19929;-79
2021/12/07 11:12:07;;;;;;;;;;;4.00;99.90;;;;;;5000660;28;19928;-80
2021/12/07 11:14:51;;;;;;;;;;;4.00;99.90;;;;;;5021087;28;19925;-80
2021/12/07 11:17:25;;;;;;;;;;;4.10;99.90;;;;;;4995880;23;19921;-81
2021/12/07 11:19:52;;;;;;;;;;;4.20;99.90;;;;;;5040272;28;19927;-80
2021/12/07 11:22:18;;;;;;;;;;;4.40;99.90;;;;;;5040305;28;19976;-80
2021/12/07 11:24:44;;;;;;;;;;;4.60;99.90;;;;;;5057760;28;20263;-79
2021/12/07 11:29:57;;;;;;;;;;;5.30;99.90;;;;;;5057910;28;19972;-80
2021/12/07 11:32:22;;;;;;;;;;;4.90;99.90;;;;;;5041316;28;19971;-80
2021/12/07 11:34:48;;;;;;;;;;;5.00;99.90;;;;;;5040778;28;19921;-80
2021/12/07 11:37:14;;;;;;;;;;;5.00;99.90;;;;;;5039592;28;19928;-80
2021/12/07 11:39:47;;;;;;;;;;;5.00;99.90;;;;;;5023543;28;19925;-80
2021/12/07 11:42:12;;;;;;;;;;;5.20;99.90;;;;;;5058288;28;19920;-80
2021/12/07 11:44:52;;;;;;;;;;;5.10;99.90;;;;;;5057512;28;19927;-80
2021/12/07 11:47:29;;;;;;;;;;;5.10;99.90;;;;;;5057519;28;19921;-79
2021/12/07 11:49:55;;;;;;;;;;;5.10;99.90;;;;;;5058277;28;19924;-80
2021/12/07 11:52:20;;;;;;;;;;;5.20;99.90;;;;;;5022825;28;19928;-79
2021/12/07 11:54:46;;;;;;;;;;;5.20;99.90;;;;;;5023356;28;20286;-79
2021/12/07 11:57:13;;;;;;;;;;;5.20;99.90;;;;;;5057693;28;19974;-80
2021/12/07 11:59:39;;;;;;;;;;;5.20;99.90;;;;;;5058144;28;20015;-79
2021/12/07 12:02:05;;;;;;;;;;;5.70;99.90;;;;;;5058237;28;19921;-80
2021/12/07 12:04:31;;;;;;;;;;;5.20;99.90;;;;;;5039656;28;19924;-80
2021/12/07 12:06:57;;;;;;;;;;;5.80;99.90;;;;;;5038982;28;19921;-79
2021/12/07 12:09:23;;;;;;;;;;;5.20;99.90;;;;;;5040130;28;19974;-80
2021/12/07 12:11:54;;;;;;;;;;;5.20;99.90;;;;;;5022158;28;19931;-79
2021/12/07 12:14:38;;;;;;;;;;;5.20;99.90;;;;;;5057975;28;20429;-80
2021/12/07 12:17:17;;;;;;;;;;;5.20;99.90;;;;;;5038848;28;19928;-80
2021/12/07 12:19:49;;;;;;;;;;;5.20;99.90;;;;;;5018737;28;20330;-80
2021/12/07 12:22:17;;;;;;;;;;;5.20;99.90;;;;;;5053237;28;19956;-80
2021/12/07 12:24:49;;;;;;;;;;;5.20;99.90;;;;;;5019940;28;20413;-80
2021/12/07 12:27:18;;;;;;;;;;;5.20;99.90;;;;;;5037729;28;19928;-80
2021/12/07 12:29:45;;;;;;;;;;;5.20;99.90;;;;;;5038017;28;19925;-80
2021/12/07 12:32:11;;;;;;;;;;;6.00;99.90;;;;;;5038228;28;19968;-80
2021/12/07 12:34:38;;;;;;;;;;;5.20;99.90;;;;;;5038677;28;19936;-80
2021/12/07 12:37:20;;;;;;;;;;;5.20;99.90;;;;;;5020067;28;20015;-81
2021/12/07 12:39:48;;;;;;;;;;;5.30;99.90;;;;;;5046976;22;19921;-80
2021/12/07 12:42:37;;;;;;;;;;;5.30;99.90;;;;;;5022981;28;20016;-80
2021/12/07 12:45:30;;;;;;;;;;;5.30;99.90;;;;;;5047863;28;19928;-80
2021/12/07 12:47:57;;;;;;;;;;;5.30;99.90;;;;;;5057487;28;20564;-80
2021/12/07 12:50:26;;;;;;;;;;;6.10;99.90;;;;;;5059234;28;19976;-80
2021/12/07 12:52:53;;;;;;;;;;;6.30;99.90;;;;;;5060339;28;19942;-80
2021/12/07 12:55:45;;;;;;;;;;;5.40;99.90;;;;;;5041058;28;19928;-80
2021/12/07 12:58:13;;;;;;;;;;;5.40;99.90;;;;;;5037173;28;19925;-80
2021/12/07 13:00:57;;;;;;;;;;;6.30;99.90;;;;;;5061229;28;19975;-80
2021/12/07 13:03:23;;;;;;;;;;;5.40;99.90;;;;;;5062335;28;20015;-80
2021/12/07 13:06:01;;;;;;;;;;;5.60;99.90;;;;;;5044047;28;19989;-80
2021/12/07 13:08:28;;;;;;;;;;;5.50;99.90;;;;;;5061769;28;19996;-80
2021/12/07 13:11:02;;;;;;;;;;;5.50;99.90;;;;;;5043670;28;19967;-80
2021/12/07 13:13:33;;;;;;;;;;;5.50;99.90;;;;;;5044171;28;19920;-80
2021/12/07 13:16:10;;;;;;;;;;;5.60;99.90;;;;;;5061797;28;19923;-80
2021/12/07 13:18:39;;;;;;;;;;;5.60;99.90;;;;;;5061511;28;20438;-80
2021/12/07 13:21:17;;;;;;;;;;;5.80;99.90;;;;;;5027560;28;19923;-80
2021/12/07 13:23:56;;;;;;;;;;;5.80;99.90;;;;;;5061572;28;19921;-80
2021/12/07 13:26:24;;;;;;;;;;;6.70;99.90;;;;;;5043910;28;19921;-80
2021/12/07 13:29:00;;;;;;;;;;;6.50;99.90;;;;;;5042761;28;19921;-80
2021/12/07 13:31:34;;;;;;;;;;;6.70;99.90;;;;;;5026454;28;19974;-80
2021/12/07 13:34:01;;;;;;;;;;;5.80;99.90;;;;;;5043041;28;19920;-81
2021/12/07 13:36:33;;;;;;;;;;;5.70;99.90;;;;;;5026511;28;19928;-80
2021/12/07 13:39:12;;;;;;;;;;;5.60;99.90;;;;;;5060748;28;20425;-80
2021/12/07 13:41:54;;;;;;;;;;;5.50;99.90;;;;;;5042820;28;19975;-80
2021/12/07 13:44:20;;;;;;;;;;;5.40;99.90;;;;;;5026418;28;19921;-80
2021/12/07 13:46:46;;;;;;;;;;;5.00;99.90;;;;;;5043142;28;19925;-80
2021/12/07 13:49:12;;;;;;;;;;;5.30;99.90;;;;;;5043548;28;19932;-80
2021/12/07 13:51:38;;;;;;;;;;;6.00;99.90;;;;;;5065238;28;19920;-80
2021/12/07 13:54:05;;;;;;;;;;;5.40;99.90;;;;;;5045663;28;19920;-80
2021/12/07 13:56:34;;;;;;;;;;;5.10;99.90;;;;;;5060963;28;20404;-80
2021/12/07 13:59:03;;;;;;;;;;;4.90;99.90;;;;;;5060924;28;19975;-80
2021/12/07 14:01:29;;;;;;;;;;;5.00;99.90;;;;;;5026124;28;19931;-80
2021/12/07 14:03:56;;;;;;;;;;;4.70;99.90;;;;;;5060120;28;19942;-80
2021/12/07 14:06:22;;;;;;;;;;;4.70;99.90;;;;;;5060044;28;19921;-80
2021/12/07 14:08:48;;;;;;;;;;;4.60;99.90;;;;;;5060167;28;19921;-80
2021/12/07 14:11:15;;;;;;;;;;;4.50;99.90;;;;;;5040991;28;20283;-80
2021/12/07 14:13:44;;;;;;;;;;;4.50;99.90;;;;;;5060852;28;19969;-80
2021/12/07 14:16:10;;;;;;;;;;;4.40;99.90;;;;;;5041398;28;19939;-80
2021/12/07 14:18:38;;;;;;;;;;;4.40;99.90;;;;;;5062179;28;19924;-80
2021/12/07 14:21:05;;;;;;;;;;;4.30;99.90;;;;;;5043094;28;19987;-80
2021/12/07 14:23:32;;;;;;;;;;;4.20;99.90;;;;;;5060187;28;19931;-80
2021/12/07 14:26:14;;;;;;;;;;;4.20;99.90;;;;;;5060344;28;19920;-80
2021/12/07 14:28:45;;;;;;;;;;;4.20;99.90;;;;;;5059456;28;19974;-80
2021/12/07 14:31:15;;;;;;;;;;;4.10;99.90;;;;;;5025768;28;20375;-80
2021/12/07 14:33:49;;;;;;;;;;;4.10;99.90;;;;;;5059360;28;19932;-80
2021/12/07 14:36:20;;;;;;;;;;;4.00;99.90;;;;;;5058013;28;19967;-80
2021/12/07 14:38:46;;;;;;;;;;;4.00;99.90;;;;;;5046988;28;20366;-79
2021/12/07 14:41:12;;;;;;;;;;;4.90;99.90;;;;;;5079205;28;20362;-80
2021/12/07 14:43:39;;;;;;;;;;;3.90;99.90;;;;;;5061115;28;19920;-80
2021/12/07 14:46:05;;;;;;;;;;;3.90;99.90;;;;;;5079296;28;19920;-80
2021/12/07 14:48:31;;;;;;;;;;;3.80;99.90;;;;;;5044350;28;19932;-79
2021/12/07 14:51:07;;;;;;;;;;;4.10;99.90;;;;;;5060027;28;19921;-80
2021/12/07 14:53:44;;;;;;;;;;;3.70;99.90;;;;;;5060099;28;19924;-79
2021/12/07 14:56:11;;;;;;;;;;;3.60;99.90;;;;;;5060467;28;20050;-79
2021/12/07 14:58:38;;;;;;;;;;;4.30;99.90;;;;;;5062776;28;19921;-80
2021/12/07 15:01:05;;;;;;;;;;;3.50;99.90;;;;;;5055422;28;19921;-80
2021/12/07 15:03:38;;;;;;;;;;;4.20;99.90;;;;;;5043203;28;19924;-80
2021/12/07 15:06:04;;;;;;;;;;;3.50;99.90;;;;;;5049501;28;19971;-80
2021/12/07 15:08:30;;;;;;;;;;;3.40;99.90;;;;;;5040828;28;20367;-80
2021/12/07 15:10:56;;;;;;;;;;;3.40;99.90;;;;;;5057146;28;20374;-79
2021/12/07 15:13:22;;;;;;;;;;;3.90;99.90;;;;;;5039212;28;19921;-79
2021/12/07 15:15:48;;;;;;;;;;;3.80;99.90;;;;;;5038895;28;20058;-79
2021/12/07 15:18:13;;;;;;;;;;;3.50;99.90;;;;;;5057969;28;19959;-80
2021/12/07 15:20:39;;;;;;;;;;;3.30;99.90;;;;;;5039089;28;19917;-79
2021/12/07 15:23:05;;;;;;;;;;;3.30;99.90;;;;;;5056638;28;19928;-79
2021/12/07 15:25:31;;;;;;;;;;;3.30;99.90;;;;;;5057353;28;19947;-79
2021/12/07 15:27:57;;;;;;;;;;;3.30;99.90;;;;;;5057083;28;20359;-79
2021/12/07 15:30:24;;;;;;;;;;;3.20;99.90;;;;;;5039812;28;20003;-80
2021/12/07 15:32:49;;;;;;;;;;;3.30;99.90;;;;;;5058836;28;20286;-80
2021/12/07 15:35:22;;;;;;;;;;;3.20;99.90;;;;;;5039050;28;19920;-79
2021/12/07 15:37:48;;;;;;;;;;;3.20;99.90;;;;;;5056220;28;19921;-79
2021/12/07 15:40:14;;;;;;;;;;;3.20;99.90;;;;;;5056013;28;19960;-79
2021/12/07 15:42:39;;;;;;;;;;;3.20;99.90;;;;;;5056380;28;19921;-79
2021/12/07 15:45:09;;;;;;;;;;;3.50;99.90;;;;;;5056296;28;20306;-79
2021/12/07 15:47:40;;;;;;;;;;;3.10;99.90;;;;;;5037859;28;19921;-79
2021/12/07 15:50:13;;;;;;;;;;;3.10;99.90;;;;;;5056208;28;19921;-79
2021/12/07 15:52:41;;;;;;;;;;;3.10;99.90;;;;;;5038114;28;19921;-79
2021/12/07 15:55:07;;;;;;;;;;;3.10;99.90;;;;;;5056074;28;19928;-79
2021/12/07 15:57:51;;;;;;;;;;;3.10;99.90;;;;;;5055719;28;19917;-79
2021/12/07 16:00:22;;;;;;;;;;;3.10;99.90;;;;;;5055580;28;19920;-79
2021/12/07 16:02:56;;;;;;;;;;;3.10;99.90;;;;;;5038044;28;19917;-79
2021/12/07 16:05:22;;;;;;;;;;;3.10;99.90;;;;;;5037907;28;19928;-79
2021/12/07 16:07:49;;;;;;;;;;;3.10;99.90;;;;;;5021496;28;20042;-79
2021/12/07 16:10:22;;;;;;;;;;;3.20;99.90;;;;;;5056488;28;19921;-79
2021/12/07 16:13:08;;;;;;;;;;;3.10;99.90;;;;;;5056183;28;19984;-79
2021/12/07 16:15:34;;;;;;;;;;;3.10;99.90;;;;;;5055878;28;19927;-79
2021/12/07 16:18:02;;;;;;;;;;;3.10;99.90;;;;;;5037996;28;19927;-79
2021/12/07 16:20:28;;;;;;;;;;;4.00;99.90;;;;;;5037516;28;20395;-79